Time;durP1;ratioP1;P1;durP2;ratioP2;P2;SDS_P1;SDS_P2;PMS_P1;PMS_P2;Temp;Humidity;BMP_temperature;BMP_pressure;BME280_temperature;BME280_humidity;BME280_pressure;Samples;Min_cycle;Max_cycle;Signal;HPM_P1;HPM_P2
2022/10/05 00:01:40;;;;;;;7.88;4.72;;;;;;;;;;5020328;28;20403;-80
2022/10/05 00:04:27;;;;;;;9.38;5.13;;;;;;;;;;5013917;28;20054;-79
2022/10/05 00:07:15;;;;;;;12.45;5.50;;;;;;;;;;5014186;28;20471;-79
2022/10/05 00:10:13;;;;;;;12.10;5.88;;;;;;;;;;5014125;28;20375;-79
2022/10/05 00:12:58;;;;;;;10.60;4.90;;;;;;;;;;5013760;28;20042;-80
2022/10/05 00:15:43;;;;;;;10.98;5.63;;;;;;;;;;5020622;28;20491;-79
2022/10/05 00:18:29;;;;;;;7.60;5.13;;;;;;;;;;5013973;28;20046;-79
2022/10/05 00:21:27;;;;;;;13.07;5.38;;;;;;;;;;5014012;28;20049;-80
2022/10/05 00:24:18;;;;;;;9.60;5.05;;;;;;;;;;5013799;28;20046;-79
2022/10/05 00:27:17;;;;;;;10.98;5.80;;;;;;;;;;5013597;28;20403;-80
2022/10/05 00:30:17;;;;;;;12.52;6.25;;;;;;;;;;5005807;28;20042;-80
2022/10/05 00:33:03;;;;;;;10.65;5.55;;;;;;;;;;5013779;28;20046;-80
2022/10/05 00:35:48;;;;;;;14.13;6.15;;;;;;;;;;5005791;28;20038;-79
2022/10/05 00:38:34;;;;;;;8.98;6.30;;;;;;;;;;5017085;28;20061;-80
2022/10/05 00:41:28;;;;;;;20.52;6.10;;;;;;;;;;5016375;28;20046;-80
2022/10/05 00:44:40;;;;;;;10.55;6.13;;;;;;;;;;5009825;28;20054;-80
2022/10/05 00:47:56;;;;;;;10.70;5.88;;;;;;;;;;5009510;28;20054;-80
2022/10/05 00:50:50;;;;;;;8.40;5.50;;;;;;;;;;5010065;28;20045;-80
2022/10/05 00:54:02;;;;;;;11.98;5.45;;;;;;;;;;5002782;28;20042;-80
2022/10/05 00:57:11;;;;;;;11.07;4.68;;;;;;;;;;5017568;28;20041;-80
2022/10/05 01:00:05;;;;;;;7.75;4.25;;;;;;;;;;5017487;28;20038;-80
2022/10/05 01:02:59;;;;;;;9.10;4.88;;;;;;;;;;5017466;28;20041;-80
2022/10/05 01:06:05;;;;;;;8.77;5.13;;;;;;;;;;5017174;28;20038;-80
2022/10/05 01:09:11;;;;;;;10.27;5.35;;;;;;;;;;5009241;28;20042;-80
2022/10/05 01:12:14;;;;;;;9.10;4.90;;;;;;;;;;5009216;28;20399;-79
2022/10/05 01:15:28;;;;;;;11.52;4.95;;;;;;;;;;5008934;28;20045;-80
2022/10/05 01:18:25;;;;;;;11.02;5.90;;;;;;;;;;5008989;28;20041;-80
2022/10/05 01:21:21;;;;;;;8.98;5.43;;;;;;;;;;5016945;28;20042;-80
2022/10/05 01:24:15;;;;;;;11.57;5.00;;;;;;;;;;5017334;28;20046;-80
2022/10/05 01:27:29;;;;;;;13.98;5.32;;;;;;;;;;5016530;28;20038;-81
2022/10/05 01:30:19;;;;;;;6.13;4.43;;;;;;;;;;5008898;28;20400;-80
2022/10/05 01:33:21;;;;;;;8.63;4.57;;;;;;;;;;5017111;28;20046;-80
2022/10/05 01:36:20;;;;;;;7.63;3.90;;;;;;;;;;5016495;28;20038;-80
2022/10/05 01:39:19;;;;;;;7.57;3.90;;;;;;;;;;5008857;28;20046;-80
2022/10/05 01:42:05;;;;;;;6.15;3.55;;;;;;;;;;5008427;28;20053;-80
2022/10/05 01:45:01;;;;;;;4.55;2.80;;;;;;;;;;5016925;28;20038;-80
2022/10/05 01:47:56;;;;;;;5.80;2.97;;;;;;;;;;5016956;28;20463;-80
2022/10/05 01:51:09;;;;;;;6.22;2.95;;;;;;;;;;5016347;28;20038;-80
2022/10/05 01:54:30;;;;;;;6.40;2.72;;;;;;;;;;5008995;28;20049;-80
2022/10/05 01:57:21;;;;;;;5.78;2.53;;;;;;;;;;5009380;28;20062;-80
2022/10/05 02:00:14;;;;;;;7.60;2.53;;;;;;;;;;5008682;28;20042;-80
2022/10/05 02:03:24;;;;;;;3.35;2.50;;;;;;;;;;5016762;28;20049;-80
2022/10/05 02:06:17;;;;;;;4.35;2.20;;;;;;;;;;5007964;28;20046;-80
2022/10/05 02:09:06;;;;;;;3.72;2.50;;;;;;;;;;5016521;28;20038;-80
2022/10/05 02:12:01;;;;;;;13.00;6.43;;;;;;;;;;5007864;28;20045;-80
2022/10/05 02:14:53;;;;;;;5.45;3.53;;;;;;;;;;5007941;28;20399;-80
2022/10/05 02:17:44;;;;;;;7.15;4.70;;;;;;;;;;5015973;28;20213;-80
2022/10/05 02:20:33;;;;;;;37.17;16.17;;;;;;;;;;5023140;28;20041;-80
2022/10/05 02:23:22;;;;;;;22.73;11.93;;;;;;;;;;5016564;28;20050;-80
2022/10/05 02:26:10;;;;;;;28.55;14.02;;;;;;;;;;5007192;28;20042;-80
2022/10/05 02:29:01;;;;;;;31.10;13.63;;;;;;;;;;5007863;28;20038;-80
2022/10/05 02:31:56;;;;;;;23.27;10.57;;;;;;;;;;5007641;28;20041;-80
2022/10/05 02:34:42;;;;;;;21.45;9.63;;;;;;;;;;5008104;28;20049;-80
2022/10/05 02:37:45;;;;;;;12.00;6.05;;;;;;;;;;5007938;28;20387;-80
2022/10/05 02:40:57;;;;;;;9.77;5.43;;;;;;;;;;5015756;28;20038;-80
2022/10/05 02:43:55;;;;;;;10.88;4.88;;;;;;;;;;5015730;28;20042;-80
2022/10/05 02:46:48;;;;;;;7.40;4.47;;;;;;;;;;5007159;28;20050;-80
2022/10/05 02:49:45;;;;;;;7.03;4.18;;;;;;;;;;5007828;28;20042;-80
2022/10/05 02:52:47;;;;;;;5.70;3.53;;;;;;;;;;5008052;28;20046;-80
2022/10/05 02:55:42;;;;;;;5.63;3.17;;;;;;;;;;5007262;28;20030;-80
2022/10/05 02:58:40;;;;;;;5.15;2.88;;;;;;;;;;5002100;28;20054;-80
2022/10/05 03:01:51;;;;;;;7.43;2.78;;;;;;;;;;5015218;28;20037;-80
2022/10/05 03:04:51;;;;;;;2.92;2.42;;;;;;;;;;4974402;28;20042;-80
2022/10/05 03:07:55;;;;;;;3.75;2.53;;;;;;;;;;5006521;28;20042;-80
2022/10/05 03:11:00;;;;;;;4.50;2.70;;;;;;;;;;5007896;28;20049;-80
2022/10/05 03:14:11;;;;;;;5.38;2.78;;;;;;;;;;5007199;28;20033;-80
2022/10/05 03:17:05;;;;;;;5.60;3.22;;;;;;;;;;5006707;28;20045;-80
2022/10/05 03:20:13;;;;;;;5.43;2.78;;;;;;;;;;5007362;28;20042;-80
2022/10/05 03:23:08;;;;;;;3.53;2.78;;;;;;;;;;4993199;28;20395;-80
2022/10/05 03:26:12;;;;;;;4.25;2.70;;;;;;;;;;5006993;28;20041;-80
2022/10/05 03:29:07;;;;;;;4.40;2.83;;;;;;;;;;5006659;28;20042;-80
2022/10/05 03:32:28;;;;;;;3.78;2.55;;;;;;;;;;5007060;28;20046;-80
2022/10/05 03:35:27;;;;;;;4.28;2.78;;;;;;;;;;4992557;28;20046;-80
2022/10/05 03:38:22;;;;;;;3.83;3.10;;;;;;;;;;5014839;28;20037;-80
2022/10/05 03:41:56;;;;;;;5.25;2.67;;;;;;;;;;5006550;28;20049;-79
2022/10/05 03:44:50;;;;;;;6.20;2.70;;;;;;;;;;4997737;28;20045;-82
2022/10/05 03:47:50;;;;;;;3.40;2.70;;;;;;;;;;5005865;28;20038;-80
2022/10/05 03:50:49;;;;;;;7.05;2.88;;;;;;;;;;5005878;28;20038;-80
2022/10/05 03:53:42;;;;;;;4.45;2.50;;;;;;;;;;5006377;28;20042;-80
2022/10/05 03:56:48;;;;;;;10.35;2.75;;;;;;;;;;5006563;28;20038;-81
2022/10/05 04:00:07;;;;;;;4.35;2.92;;;;;;;;;;5006585;28;20046;-80
2022/10/05 04:03:22;;;;;;;12.52;7.28;;;;;;;;;;5006135;28;20042;-80
2022/10/05 04:06:28;;;;;;;12.98;6.93;;;;;;;;;;5020258;28;20049;-80
2022/10/05 04:09:21;;;;;;;10.85;4.38;;;;;;;;;;5006324;28;20045;-79
2022/10/05 04:12:29;;;;;;;6.57;3.28;;;;;;;;;;5005787;28;20042;-79
2022/10/05 04:15:23;;;;;;;5.43;3.42;;;;;;;;;;5005994;28;20049;-80
2022/10/05 04:18:24;;;;;;;5.10;3.47;;;;;;;;;;5006056;28;20041;-80
2022/10/05 04:21:17;;;;;;;4.90;2.88;;;;;;;;;;5014328;28;20046;-80
2022/10/05 04:24:11;;;;;;;10.38;2.78;;;;;;;;;;5005528;28;20046;-80
2022/10/05 04:27:11;;;;;;;4.45;2.72;;;;;;;;;;5013807;28;20041;-80
2022/10/05 04:30:07;;;;;;;8.35;3.13;;;;;;;;;;5014263;28;20042;-80
2022/10/05 04:32:58;;;;;;;8.02;2.78;;;;;;;;;;5005306;28;20050;-80
2022/10/05 04:36:05;;;;;;;4.72;3.30;;;;;;;;;;5005559;28;20034;-80
2022/10/05 04:39:12;;;;;;;6.88;3.20;;;;;;;;;;5005823;28;20054;-80
2022/10/05 04:42:24;;;;;;;10.55;4.47;;;;;;;;;;5005451;28;20395;-80
2022/10/05 04:45:10;;;;;;;10.52;5.32;;;;;;;;;;5006199;28;20038;-79
2022/10/05 04:48:10;;;;;;;8.75;4.47;;;;;;;;;;5006138;28;20046;-80
2022/10/05 04:51:06;;;;;;;16.25;7.57;;;;;;;;;;5005911;28;20050;-79
2022/10/05 04:54:04;;;;;;;16.10;6.07;;;;;;;;;;5014043;28;20050;-80
2022/10/05 04:56:58;;;;;;;11.10;5.15;;;;;;;;;;5006399;28;20037;-84
2022/10/05 05:00:08;;;;;;;12.15;5.43;;;;;;;;;;5006356;28;20050;-81
2022/10/05 05:03:20;;;;;;;16.13;5.38;;;;;;;;;;5005299;28;20046;-81
2022/10/05 05:06:32;;;;;;;16.02;6.15;;;;;;;;;;5006134;28;20038;-81
2022/10/05 05:09:32;;;;;;;10.35;5.20;;;;;;;;;;5005383;28;20395;-80
2022/10/05 05:12:33;;;;;;;9.25;5.07;;;;;;;;;;5013650;28;20042;-80
2022/10/05 05:15:34;;;;;;;7.22;4.50;;;;;;;;;;5013808;28;20050;-82
2022/10/05 05:18:35;;;;;;;9.90;4.57;;;;;;;;;;5005687;28;20388;-81
2022/10/05 05:21:56;;;;;;;8.43;4.22;;;;;;;;;;5013900;28;20391;-81
2022/10/05 05:25:17;;;;;;;9.93;5.72;;;;;;;;;;4944290;28;20045;-81
2022/10/05 05:28:12;;;;;;;13.15;6.47;;;;;;;;;;4982805;28;20046;-82
2022/10/05 05:31:24;;;;;;;12.02;6.78;;;;;;;;;;5015534;28;20038;-80
2022/10/05 05:34:28;;;;;;;16.52;8.30;;;;;;;;;;5009170;28;20495;-82
2022/10/05 05:37:17;;;;;;;22.52;12.63;;;;;;;;;;5009024;28;20034;-82
2022/10/05 05:40:35;;;;;;;20.13;11.88;;;;;;;;;;5008999;28;20069;-81
2022/10/05 05:43:29;;;;;;;24.92;11.00;;;;;;;;;;5001966;28;20412;-82
2022/10/05 05:46:27;;;;;;;25.42;8.57;;;;;;;;;;5008737;28;20050;-81
2022/10/05 05:49:57;;;;;;;17.25;9.52;;;;;;;;;;5008761;28;20042;-82
2022/10/05 05:53:10;;;;;;;32.08;15.35;;;;;;;;;;5008412;28;20050;-81
2022/10/05 05:56:04;;;;;;;18.25;9.68;;;;;;;;;;5008687;28;20046;-81
2022/10/05 05:59:02;;;;;;;16.27;8.50;;;;;;;;;;5001936;28;20058;-80
2022/10/05 06:01:57;;;;;;;19.15;8.70;;;;;;;;;;5009204;28;20049;-81
2022/10/05 06:04:48;;;;;;;15.35;8.70;;;;;;;;;;5008073;28;20041;-80
2022/10/05 06:07:36;;;;;;;12.85;7.88;;;;;;;;;;4994327;28;20037;-82
2022/10/05 06:10:46;;;;;;;14.88;7.60;;;;;;;;;;5007986;28;20407;-82
2022/10/05 06:13:34;;;;;;;10.63;6.72;;;;;;;;;;5008130;28;20042;-82
2022/10/05 06:16:25;;;;;;;11.43;6.88;;;;;;;;;;5007913;28;20041;-81
2022/10/05 06:19:15;;;;;;;9.90;6.22;;;;;;;;;;5008291;28;20046;-81
2022/10/05 06:22:21;;;;;;;10.25;6.22;;;;;;;;;;5008060;28;20049;-82
2022/10/05 06:25:10;;;;;;;17.30;6.45;;;;;;;;;;5008263;28;20472;-82
2022/10/05 06:28:02;;;;;;;10.77;6.47;;;;;;;;;;5007130;28;20042;-83
2022/10/05 06:31:08;;;;;;;11.10;6.50;;;;;;;;;;5008120;28;20046;-82
2022/10/05 06:34:13;;;;;;;12.70;6.82;;;;;;;;;;5007845;28;20050;-81
2022/10/05 06:37:03;;;;;;;11.38;5.97;;;;;;;;;;5007725;28;20038;-80
2022/10/05 06:40:28;;;;;;;13.68;7.50;;;;;;;;;;5022419;28;20057;-80
2022/10/05 06:43:16;;;;;;;12.00;6.55;;;;;;;;;;5007532;28;20041;-78
2022/10/05 06:46:30;;;;;;;10.45;6.32;;;;;;;;;;5022042;28;20038;-77
2022/10/05 06:49:43;;;;;;;15.43;7.25;;;;;;;;;;5008820;28;20042;-79
2022/10/05 06:53:07;;;;;;;12.52;7.78;;;;;;;;;;5016431;28;20050;-79
2022/10/05 06:56:10;;;;;;;18.17;8.45;;;;;;;;;;5007745;28;20034;-79
2022/10/05 06:59:02;;;;;;;28.17;12.02;;;;;;;;;;5015126;28;20045;-78
2022/10/05 07:02:05;;;;;;;12.48;8.10;;;;;;;;;;5005691;28;20395;-80
2022/10/05 07:04:58;;;;;;;15.63;8.38;;;;;;;;;;5021076;28;20038;-83
2022/10/05 07:07:55;;;;;;;16.95;7.55;;;;;;;;;;5014157;28;20046;-79
2022/10/05 07:11:10;;;;;;;15.02;7.35;;;;;;;;;;5019209;28;20046;-81
2022/10/05 07:13:59;;;;;;;;;;;;;;;;;;5010879;28;20037;-80
2022/10/05 07:16:54;;;;;;;16.67;7.90;;;;;;;;;;5008028;28;19917;-81
2022/10/05 07:19:44;;;;;;;11.10;6.15;;;;;;;;;;5008199;28;20483;-83
2022/10/05 07:22:42;;;;;;;10.70;6.57;;;;;;;;;;5007000;28;20050;-83
2022/10/05 07:25:36;;;;;;;11.88;7.10;;;;;;;;;;5006844;28;20501;-82
2022/10/05 07:28:47;;;;;;;11.32;6.22;;;;;;;;;;5006932;28;20053;-82
2022/10/05 07:31:45;;;;;;;9.77;5.05;;;;;;;;;;5006667;28;20038;-82
2022/10/05 07:35:07;;;;;;;10.10;4.93;;;;;;;;;;5021549;28;20038;-82
2022/10/05 07:37:53;;;;;;;12.75;6.20;;;;;;;;;;5014995;28;20034;-82
2022/10/05 07:40:53;;;;;;;9.65;5.97;;;;;;;;;;5006627;28;20045;-82
2022/10/05 07:44:06;;;;;;;9.75;5.50;;;;;;;;;;5021823;28;20045;-83
2022/10/05 07:47:03;;;;;;;13.73;5.60;;;;;;;;;;5000119;28;20042;-80
2022/10/05 07:50:01;;;;;;;10.50;5.68;;;;;;;;;;5007798;28;20475;-82
2022/10/05 07:53:02;;;;;;;10.40;5.93;;;;;;;;;;4979965;28;20042;-84
2022/10/05 07:55:56;;;;;;;11.43;4.97;;;;;;;;;;5006391;28;20050;-84
2022/10/05 07:58:50;;;;;;;12.00;5.50;;;;;;;;;;4980554;28;20058;-84
2022/10/05 08:01:40;;;;;;;8.52;4.95;;;;;;;;;;4986850;28;20038;-84
2022/10/05 08:05:02;;;;;;;9.73;4.65;;;;;;;;;;4986874;28;20050;-83
2022/10/05 08:07:53;;;;;;;8.23;5.15;;;;;;;;;;4959166;28;20042;-83
2022/10/05 08:10:56;;;;;;;9.45;6.13;;;;;;;;;;4995066;28;20480;-79
2022/10/05 08:14:19;;;;;;;12.00;6.00;;;;;;;;;;4994655;28;20039;-80
2022/10/05 08:17:17;;;;;;;7.60;4.82;;;;;;;;;;4960634;28;20396;-82
2022/10/05 08:20:09;;;;;;;17.30;6.30;;;;;;;;;;4994723;28;20046;-80
2022/10/05 08:23:03;;;;;;;12.63;5.85;;;;;;;;;;4987897;28;20050;-80
2022/10/05 08:26:06;;;;;;;7.97;4.85;;;;;;;;;;5002702;28;20038;-79
2022/10/05 08:28:59;;;;;;;10.07;5.30;;;;;;;;;;4994100;28;20038;-80
2022/10/05 08:31:48;;;;;;;10.95;5.43;;;;;;;;;;4995041;28;20042;-80
2022/10/05 08:34:58;;;;;;;8.63;5.22;;;;;;;;;;5001136;28;20480;-80
2022/10/05 08:37:45;;;;;;;9.70;5.20;;;;;;;;;;4994458;28;20042;-80
2022/10/05 08:41:00;;;;;;;20.55;6.93;;;;;;;;;;4994638;28;20046;-80
2022/10/05 08:44:14;;;;;;;16.90;10.13;;;;;;;;;;4994622;28;20521;-79
2022/10/05 08:47:12;;;;;;;7.72;4.70;;;;;;;;;;4994666;28;20042;-79
2022/10/05 08:50:11;;;;;;;13.65;4.63;;;;;;;;;;4994889;28;20042;-80
2022/10/05 08:53:15;;;;;;;8.77;4.60;;;;;;;;;;4995963;28;20050;-79
2022/10/05 08:56:26;;;;;;;8.82;4.20;;;;;;;;;;5004082;28;20050;-80
2022/10/05 08:59:45;;;;;;;8.00;4.32;;;;;;;;;;4994685;28;20480;-80
2022/10/05 09:03:08;;;;;;;7.40;4.22;;;;;;;;;;5002063;28;20050;-81
2022/10/05 09:06:20;;;;;;;8.73;4.78;;;;;;;;;;5005073;28;20046;-80
2022/10/05 09:09:48;;;;;;;7.20;4.00;;;;;;;;;;4998674;28;20054;-81
2022/10/05 09:12:55;;;;;;;7.25;2.88;;;;;;;;;;4997638;28;20042;-80
2022/10/05 09:16:05;;;;;;;8.57;3.80;;;;;;;;;;4999421;28;20043;-82
2022/10/05 09:19:06;;;;;;;5.07;2.95;;;;;;;;;;5004984;28;20050;-82
2022/10/05 09:22:01;;;;;;;4.78;3.00;;;;;;;;;;4999794;28;20476;-82
2022/10/05 09:24:51;;;;;;;4.72;2.92;;;;;;;;;;4996837;28;20483;-83
2022/10/05 09:27:42;;;;;;;6.05;3.25;;;;;;;;;;4997940;28;20076;-82
2022/10/05 09:30:58;;;;;;;6.78;3.20;;;;;;;;;;4998863;28;20050;-83
2022/10/05 09:34:27;;;;;;;6.65;3.33;;;;;;;;;;4998319;28;20038;-83
2022/10/05 09:37:37;;;;;;;6.25;3.60;;;;;;;;;;5003769;28;20054;-83
2022/10/05 09:40:40;;;;;;;6.35;2.92;;;;;;;;;;4989054;28;20384;-82
2022/10/05 09:44:09;;;;;;;4.75;2.75;;;;;;;;;;4997236;28;20054;-83
2022/10/05 09:47:22;;;;;;;6.15;2.75;;;;;;;;;;4996790;28;20500;-83
2022/10/05 09:50:41;;;;;;;5.80;2.97;;;;;;;;;;5004495;28;20050;-82
2022/10/05 09:53:37;;;;;;;5.93;2.35;;;;;;;;;;5003442;28;20046;-82
2022/10/05 09:56:34;;;;;;;5.10;2.10;;;;;;;;;;4997579;28;20050;-82
2022/10/05 09:59:50;;;;;;;4.70;2.00;;;;;;;;;;4996892;28;20496;-82
2022/10/05 10:02:57;;;;;;;5.75;3.03;;;;;;;;;;4996856;28;20039;-82
2022/10/05 10:06:09;;;;;;;4.82;2.40;;;;;;;;;;5003358;28;20046;-82
2022/10/05 10:09:19;;;;;;;5.00;2.50;;;;;;;;;;4996829;28;20511;-78
2022/10/05 10:12:45;;;;;;;6.68;2.85;;;;;;;;;;4996534;28;20396;-79
2022/10/05 10:15:49;;;;;;;3.95;2.15;;;;;;;;;;5001661;28;20043;-78
2022/10/05 10:18:50;;;;;;;5.15;2.42;;;;;;;;;;5003451;28;20046;-79
2022/10/05 10:22:05;;;;;;;3.70;1.90;;;;;;;;;;4996436;28;20042;-79
2022/10/05 10:25:18;;;;;;;4.88;2.15;;;;;;;;;;4996967;28;20038;-79
2022/10/05 10:28:34;;;;;;;4.85;2.05;;;;;;;;;;4995808;28;20046;-79
2022/10/05 10:31:23;;;;;;;3.00;1.52;;;;;;;;;;5003253;28;20046;-79
2022/10/05 10:34:36;;;;;;;4.50;1.80;;;;;;;;;;5003109;28;20042;-78
2022/10/05 10:38:01;;;;;;;1.92;1.30;;;;;;;;;;4996184;28;20046;-79
2022/10/05 10:41:02;;;;;;;2.95;1.30;;;;;;;;;;4997037;28;20042;-79
2022/10/05 10:44:35;;;;;;;2.63;1.40;;;;;;;;;;4995861;28;20046;-78
2022/10/05 10:47:45;;;;;;;0.98;0.77;;;;;;;;;;5002485;28;20404;-78
2022/10/05 10:50:50;;;;;;;0.60;0.60;;;;;;;;;;4995760;28;20030;-77
2022/10/05 10:53:50;;;;;;;1.23;0.60;;;;;;;;;;4988414;28;20476;-79
2022/10/05 10:56:59;;;;;;;0.75;0.70;;;;;;;;;;5002465;28;20038;-79
2022/10/05 11:00:06;;;;;;;2.15;1.00;;;;;;;;;;5002351;28;20054;-79
2022/10/05 11:03:12;;;;;;;7.63;1.17;;;;;;;;;;4995881;28;20038;-79
2022/10/05 11:06:16;;;;;;;4.25;1.80;;;;;;;;;;4995694;28;20050;-79
2022/10/05 11:09:28;;;;;;;2.67;1.70;;;;;;;;;;4995936;28;20039;-79
2022/10/05 11:12:51;;;;;;;2.17;1.40;;;;;;;;;;4987602;28;20042;-80
2022/10/05 11:16:01;;;;;;;5.18;1.67;;;;;;;;;;4995346;28;20536;-79
2022/10/05 11:19:16;;;;;;;2.97;1.70;;;;;;;;;;5001519;28;20411;-78
2022/10/05 11:22:18;;;;;;;3.72;1.88;;;;;;;;;;4995399;28;20050;-79
2022/10/05 11:26:01;;;;;;;5.65;3.00;;;;;;;;;;4994778;28;20042;-79
2022/10/05 11:28:58;;;;;;;3.03;1.50;;;;;;;;;;4934798;29;20044;-79
2022/10/05 11:32:08;;;;;;;2.65;1.58;;;;;;;;;;4934445;29;20051;-80
2022/10/05 11:35:29;;;;;;;2.90;1.50;;;;;;;;;;5001364;28;20038;-80
2022/10/05 11:38:47;;;;;;;3.15;1.70;;;;;;;;;;4995716;28;20054;-82
2022/10/05 11:42:02;;;;;;;2.55;1.60;;;;;;;;;;5001988;28;20400;-80
2022/10/05 11:45:20;;;;;;;5.13;1.70;;;;;;;;;;4995452;28;20050;-81
2022/10/05 11:48:29;;;;;;;6.28;1.80;;;;;;;;;;4994570;28;20400;-79
2022/10/05 11:51:29;;;;;;;5.45;1.80;;;;;;;;;;5001779;28;20046;-80
2022/10/05 11:54:46;;;;;;;5.60;1.92;;;;;;;;;;4999707;28;20046;-81
2022/10/05 11:57:37;;;;;;;5.30;1.90;;;;;;;;;;5001093;28;20424;-81
2022/10/05 12:00:30;;;;;;;4.05;2.00;;;;;;;;;;5012500;28;20042;-81
2022/10/05 12:03:32;;;;;;;3.17;1.85;;;;;;;;;;5012629;28;20054;-80
2022/10/05 12:06:38;;;;;;;3.08;1.75;;;;;;;;;;5014323;28;20391;-82
2022/10/05 12:12:54;;;;;;;2.92;1.73;;;;;;;;;;5015275;28;20492;-80
2022/10/05 12:15:53;;;;;;;5.05;1.75;;;;;;;;;;5020848;28;20395;-80
2022/10/05 12:18:45;;;;;;;3.45;1.40;;;;;;;;;;5015113;28;20089;-80
2022/10/05 12:21:39;;;;;;;5.80;1.90;;;;;;;;;;5005987;28;20087;-81
2022/10/05 12:24:44;;;;;;;;;;;;;;;;;;5015024;28;20045;-79
2022/10/05 12:27:55;;;;;;;3.08;1.80;;;;;;;;;;5014094;28;19917;-80
2022/10/05 12:31:06;;;;;;;3.33;1.80;;;;;;;;;;5021264;28;20042;-80
2022/10/05 12:33:58;;;;;;;4.00;2.03;;;;;;;;;;5014545;28;20042;-80
2022/10/05 12:36:55;;;;;;;2.97;1.70;;;;;;;;;;5013806;28;20046;-80
2022/10/05 12:39:44;;;;;;;3.03;1.75;;;;;;;;;;5018151;28;20045;-79
2022/10/05 12:42:39;;;;;;;2.40;1.50;;;;;;;;;;5018135;28;20071;-79
2022/10/05 12:45:42;;;;;;;3.70;1.52;;;;;;;;;;5017756;28;20054;-80
2022/10/05 12:48:41;;;;;;;3.38;1.50;;;;;;;;;;5018020;28;20050;-80
2022/10/05 12:51:46;;;;;;;2.78;1.80;;;;;;;;;;5017596;28;20042;-80
2022/10/05 12:54:34;;;;;;;9.65;1.52;;;;;;;;;;5024467;28;20041;-80
2022/10/05 12:57:33;;;;;;;6.03;1.52;;;;;;;;;;5018000;28;20046;-80
2022/10/05 13:00:19;;;;;;;9.07;5.93;;;;;;;;;;5023341;28;20042;-79
2022/10/05 13:03:29;;;;;;;5.80;3.50;;;;;;;;;;5018150;28;20057;-80
2022/10/05 13:06:35;;;;;;;9.90;5.00;;;;;;;;;;5024159;28;20049;-80
2022/10/05 13:09:38;;;;;;;5.45;1.80;;;;;;;;;;5017529;28;20046;-80
2022/10/05 13:12:52;;;;;;;3.37;1.60;;;;;;;;;;5009165;28;20045;-80
2022/10/05 13:15:41;;;;;;;17.27;2.47;;;;;;;;;;5024574;28;20391;-79
2022/10/05 13:18:39;;;;;;;18.48;6.68;;;;;;;;;;5017978;28;20483;-81
2022/10/05 13:22:03;;;;;;;2.95;1.80;;;;;;;;;;5017608;28;20045;-80
2022/10/05 13:24:51;;;;;;;5.93;2.72;;;;;;;;;;5016116;28;20045;-80
2022/10/05 13:27:44;;;;;;;168.85;47.63;;;;;;;;;;5024236;28;20054;-80
2022/10/05 13:30:29;;;;;;;90.95;27.63;;;;;;;;;;5024265;28;20049;-80
2022/10/05 13:33:45;;;;;;;206.20;62.85;;;;;;;;;;5023862;28;20395;-82
2022/10/05 13:37:02;;;;;;;74.43;24.00;;;;;;;;;;5002356;28;20042;-83
2022/10/05 13:39:55;;;;;;;9.55;4.28;;;;;;;;;;5023571;28;20049;-83
2022/10/05 13:42:44;;;;;;;34.17;10.80;;;;;;;;;;5035207;28;20045;-82
2022/10/05 13:45:54;;;;;;;15.90;7.82;;;;;;;;;;5021066;28;20046;-82
2022/10/05 13:48:46;;;;;;;21.60;9.65;;;;;;;;;;5016696;28;20042;-82
2022/10/05 13:52:07;;;;;;;31.95;14.02;;;;;;;;;;5023190;28;20471;-81
2022/10/05 13:55:07;;;;;;;19.33;6.85;;;;;;;;;;4985077;28;20049;-81
2022/10/05 13:58:02;;;;;;;151.73;44.72;;;;;;;;;;5016417;28;20045;-82
2022/10/05 14:00:57;;;;;;;78.93;23.35;;;;;;;;;;5017595;28;20045;-82
2022/10/05 14:04:08;;;;;;;5.35;2.20;;;;;;;;;;5016828;28;20046;-82
2022/10/05 14:06:54;;;;;;;39.50;11.43;;;;;;;;;;5016408;28;20042;-83
2022/10/05 14:09:50;;;;;;;18.95;6.20;;;;;;;;;;5016202;28;20045;-83
2022/10/05 14:12:40;;;;;;;7.55;3.08;;;;;;;;;;5016837;28;20049;-83
2022/10/05 14:15:33;;;;;;;15.27;7.05;;;;;;;;;;5022641;28;20042;-82
2022/10/05 14:18:24;;;;;;;12.93;5.87;;;;;;;;;;5001307;28;20387;-80
2022/10/05 14:21:12;;;;;;;10.70;3.88;;;;;;;;;;5016275;28;20275;-80
2022/10/05 14:24:17;;;;;;;4.75;2.70;;;;;;;;;;5015422;28;20042;-80
2022/10/05 14:27:19;;;;;;;17.52;8.20;;;;;;;;;;5015901;28;20034;-80
2022/10/05 14:30:08;;;;;;;11.18;4.25;;;;;;;;;;5020851;28;20411;-81
2022/10/05 14:33:03;;;;;;;24.95;11.52;;;;;;;;;;5008153;28;20479;-80
2022/10/05 14:35:50;;;;;;;35.85;17.25;;;;;;;;;;5022539;28;20046;-80
2022/10/05 14:38:56;;;;;;;20.27;9.13;;;;;;;;;;5014909;28;20050;-80
2022/10/05 14:45:22;;;;;;;10.68;3.75;;;;;;;;;;5015533;28;20053;-80
2022/10/05 14:48:10;;;;;;;22.15;3.65;;;;;;;;;;5015618;28;20068;-80
2022/10/05 14:51:00;;;;;;;25.13;12.23;;;;;;;;;;5016315;28;20041;-81
2022/10/05 14:53:56;;;;;;;19.67;9.77;;;;;;;;;;5021934;28;20049;-79
2022/10/05 14:56:50;;;;;;;19.80;9.15;;;;;;;;;;5022796;28;20038;-79
2022/10/05 14:59:39;;;;;;;36.90;17.73;;;;;;;;;;5017704;28;20045;-79
2022/10/05 15:02:41;;;;;;;15.90;8.00;;;;;;;;;;5014979;28;20050;-79
2022/10/05 15:05:32;;;;;;;29.15;14.98;;;;;;;;;;5014595;28;20053;-75
2022/10/05 15:08:53;;;;;;;63.38;34.85;;;;;;;;;;5016609;28;20042;-80
2022/10/05 15:11:49;;;;;;;29.05;16.45;;;;;;;;;;5011783;28;20053;-78
2022/10/05 15:14:38;;;;;;;42.75;23.33;;;;;;;;;;5015321;28;20046;-79
2022/10/05 15:17:45;;;;;;;69.90;25.75;;;;;;;;;;5014970;28;20395;-79
2022/10/05 15:20:44;;;;;;;156.90;71.10;;;;;;;;;;5015770;28;20037;-80
2022/10/05 15:23:48;;;;;;;171.43;66.13;;;;;;;;;;5015127;28;20468;-79
2022/10/05 15:26:37;;;;;;;127.55;46.38;;;;;;;;;;5021608;28;20037;-78
2022/10/05 15:29:46;;;;;;;64.00;27.10;;;;;;;;;;5021110;28;20041;-78
2022/10/05 15:32:40;;;;;;;115.63;47.40;;;;;;;;;;5015553;28;20046;-80
2022/10/05 15:35:48;;;;;;;129.40;49.47;;;;;;;;;;5015269;28;20049;-81
2022/10/05 15:38:48;;;;;;;138.73;55.53;;;;;;;;;;5015307;28;20046;-80
2022/10/05 15:41:51;;;;;;;53.92;25.80;;;;;;;;;;5015073;28;20041;-78
2022/10/05 15:44:55;;;;;;;23.63;11.30;;;;;;;;;;5021566;28;20041;-80
2022/10/05 15:47:46;;;;;;;25.27;12.00;;;;;;;;;;5014929;28;20042;-79
2022/10/05 15:50:45;;;;;;;131.77;55.10;;;;;;;;;;5013290;28;20041;-79
2022/10/05 15:53:36;;;;;;;44.65;18.35;;;;;;;;;;5014565;28;20038;-80
2022/10/05 15:56:32;;;;;;;32.80;13.10;;;;;;;;;;5014299;28;20046;-80
2022/10/05 15:59:26;;;;;;;22.40;7.95;;;;;;;;;;5014892;28;20391;-80
2022/10/05 16:02:24;;;;;;;115.90;33.22;;;;;;;;;;5014258;28;20037;-80
2022/10/05 16:08:59;;;;;;;69.55;25.60;;;;;;;;;;5021902;28;20042;-78
2022/10/05 16:12:24;;;;;;;40.83;18.73;;;;;;;;;;5014714;28;20093;-79
2022/10/05 16:15:32;;;;;;;28.25;11.82;;;;;;;;;;5020815;28;20038;-79
2022/10/05 16:18:32;;;;;;;18.75;10.45;;;;;;;;;;5015124;28;20038;-81
2022/10/05 16:21:50;;;;;;;19.10;10.65;;;;;;;;;;5021550;28;20041;-80
2022/10/05 16:25:08;;;;;;;20.48;11.02;;;;;;;;;;5014786;28;20045;-81
2022/10/05 16:28:06;;;;;;;24.98;12.13;;;;;;;;;;5014042;28;20042;-82
2022/10/05 16:31:17;;;;;;;25.88;13.63;;;;;;;;;;5021555;28;20053;-77
2022/10/05 16:34:16;;;;;;;23.77;14.55;;;;;;;;;;5022346;28;20476;-76
2022/10/05 16:37:22;;;;;;;23.25;14.85;;;;;;;;;;5018197;28;20045;-77
2022/10/05 16:40:28;;;;;;;27.63;15.93;;;;;;;;;;5016680;28;20046;-78
2022/10/05 16:43:40;;;;;;;23.50;15.30;;;;;;;;;;5028409;28;20050;-78
2022/10/05 16:46:42;;;;;;;40.45;20.88;;;;;;;;;;5031417;28;20046;-78
2022/10/05 16:49:31;;;;;;;84.28;39.83;;;;;;;;;;5024517;28;20049;-77
2022/10/05 16:52:23;;;;;;;70.78;33.90;;;;;;;;;;5015750;28;20045;-76
2022/10/05 16:55:13;;;;;;;50.13;30.27;;;;;;;;;;5006076;28;20053;-74
2022/10/05 16:58:00;;;;;;;70.15;36.17;;;;;;;;;;5006164;28;20413;-74
2022/10/05 17:00:57;;;;;;;30.85;19.58;;;;;;;;;;4994329;28;20501;-75
2022/10/05 17:03:56;;;;;;;26.65;15.80;;;;;;;;;;5001298;28;20054;-75
2022/10/05 17:06:46;;;;;;;24.27;13.68;;;;;;;;;;5000668;28;20050;-75
2022/10/05 17:09:53;;;;;;;22.75;13.68;;;;;;;;;;4997064;28;20395;-76
2022/10/05 17:12:44;;;;;;;17.10;9.80;;;;;;;;;;5003329;28;20054;-77
2022/10/05 17:15:46;;;;;;;15.00;9.35;;;;;;;;;;4996326;28;20050;-78
2022/10/05 17:18:38;;;;;;;19.17;10.27;;;;;;;;;;4997079;28;20042;-77
2022/10/05 17:21:37;;;;;;;45.83;22.83;;;;;;;;;;4996864;28;20499;-77
2022/10/05 17:24:26;;;;;;;47.70;26.20;;;;;;;;;;5000390;28;20472;-77
2022/10/05 17:27:16;;;;;;;104.47;54.72;;;;;;;;;;5002183;28;20038;-77
2022/10/05 17:30:26;;;;;;;79.22;45.47;;;;;;;;;;5000992;28;20054;-78
2022/10/05 17:33:23;;;;;;;62.13;35.38;;;;;;;;;;5003235;28;20042;-79
2022/10/05 17:36:32;;;;;;;77.70;40.25;;;;;;;;;;5008051;28;20484;-79
2022/10/05 17:39:21;;;;;;;68.65;36.65;;;;;;;;;;5009647;28;20043;-77
2022/10/05 17:42:24;;;;;;;59.75;33.67;;;;;;;;;;5001448;28;20403;-77
2022/10/05 17:45:12;;;;;;;57.35;33.72;;;;;;;;;;4998648;28;20042;-78
2022/10/05 17:48:03;;;;;;;67.95;38.58;;;;;;;;;;4999590;28;20046;-78
2022/10/05 17:56:57;;;;;;;100.90;47.58;;;;;;;;;;5001288;28;20046;-78
2022/10/05 17:59:44;;;;;;;103.80;50.00;;;;;;;;;;5018027;28;20042;-78
2022/10/05 18:02:36;;;;;;;62.97;35.95;;;;;;;;;;5018119;28;20042;-81
2022/10/05 18:05:26;;;;;;;73.68;39.92;;;;;;;;;;5018485;28;20046;-77
2022/10/05 18:08:11;;;;;;;65.55;37.25;;;;;;;;;;5016959;28;20403;-80
2022/10/05 18:11:35;;;;;;;53.53;31.83;;;;;;;;;;5017104;28;20046;-79